This is the latest recevied weather packets stored in our database for station/object KG4IFE-13. If no packets are shown the sender has not sent any weather packets the latest 10 day(s).
| Time | Temp. | Humidity | Pressure | Rain* | Wind** | Luminosity | Snow |
|---|---|---|---|---|---|---|---|
| 1777845177 | 17.78° C | 34% | 1015.7 hPa | - | - | - | - |
| 1777842468 | 18.89° C | 33% | 1016 hPa | - | - | - | - |
| 1777841266 | 20° C | 32% | 1016.2 hPa | - | - | - | - |
| 1777840985 | 19.44° C | 33% | 1016.2 hPa | - | - | - | - |
| 1777837051 | 19.44° C | 36% | 1017.1 hPa | - | - | - | - |
| 1777836148 | 18.89° C | 35% | 1017.3 hPa | - | - | - | - |
| 1777835245 | 18.33° C | 37% | 1017.5 hPa | - | - | - | - |
| 1777833739 | 18.89° C | 37% | 1018 hPa | - | - | - | - |
| 1777833138 | 18.33° C | 39% | 1018.2 hPa | - | - | - | - |
| 1777831934 | 17.78° C | 39% | 1018.3 hPa | - | - | - | - |
| 1777831351 | 17.22° C | 38% | 1018.4 hPa | - | - | - | - |
| 1777830729 | 17.22° C | 40% | 1018.5 hPa | - | - | - | - |
| 1777830127 | 17.22° C | 41% | 1018.8 hPa | - | - | - | - |
| 1777829828 | 17.22° C | 41% | 1018.8 hPa | - | - | - | - |
| 1777829266 | 16.11° C | 42% | 1018.8 hPa | - | - | - | - |
| 1777828623 | 16.11° C | 40% | 1019 hPa | - | - | - | - |
| 1777827719 | 15° C | 40% | 1019.4 hPa | - | - | - | - |
| 1777824409 | 13.89° C | 45% | 1019.7 hPa | - | - | - | - |
| 1777820496 | 10° C | 51% | 1020.3 hPa | - | - | - | - |
| 1777820214 | 10° C | 51% | 1020.3 hPa | - | - | - | - |
| 1777819592 | 10° C | 50% | 1020.2 hPa | - | - | - | - |
| 1777818087 | 9.44° C | 52% | 1020 hPa | - | - | - | - |
| 1777815679 | 9.44° C | 53% | 1020 hPa | - | - | - | - |
| 1777754588 | 15.56° C | 42% | 1012.1 hPa | - | - | - | - |
| 1777751286 | 16.67° C | 41% | 1012 hPa | - | - | - | - |
* Rain since midnight (hover to see other rain measurements)
** Current wind speed in m/s (hover to see current wind gust speed)